Time;durP1;ratioP1;P1;durP2;ratioP2;P2;SDS_P1;SDS_P2;PMS_P1;PMS_P2;Temp;Humidity;BMP_temperature;BMP_pressure;BME280_temperature;BME280_humidity;BME280_pressure;Samples;Min_cycle;Max_cycle;Signal;HPM_P1;HPM_P2
2023/04/02 00:01:07;;;;;;;13.38;7.78;;;;;;;9.36;100.00;99162.33;1677903;85;21083;-69
2023/04/02 00:03:58;;;;;;;12.70;7.90;;;;;;;9.34;100.00;99155.72;1676090;84;21040;-68
2023/04/02 00:06:31;;;;;;;13.13;8.40;;;;;;;9.34;100.00;99163.08;1738926;81;21065;-69
2023/04/02 00:09:16;;;;;;;15.00;8.48;;;;;;;9.35;100.00;99157.92;1704672;84;21084;-69
2023/04/02 00:11:49;;;;;;;14.30;8.10;;;;;;;9.33;100.00;99164.98;1677571;85;21511;-67
2023/04/02 00:14:30;;;;;;;14.73;8.53;;;;;;;9.32;100.00;99159.73;1740660;81;20990;-68
2023/04/02 00:17:04;;;;;;;14.85;8.20;;;;;;;9.32;100.00;99163.83;1704720;84;21059;-69
2023/04/02 00:19:55;;;;;;;13.48;8.93;;;;;;;9.33;100.00;99162.77;1677740;85;21115;-67
2023/04/02 00:22:34;;;;;;;12.85;8.28;;;;;;;9.33;100.00;99172.34;1740435;82;21129;-68
2023/04/02 00:25:06;;;;;;;14.95;8.43;;;;;;;9.33;100.00;99170.44;1740110;82;21487;-67
2023/04/02 00:27:36;;;;;;;15.75;8.83;;;;;;;9.34;100.00;99176.75;1704775;83;21022;-66
2023/04/02 00:30:07;;;;;;;16.17;8.35;;;;;;;9.35;100.00;99172.43;1677899;85;20996;-68
2023/04/02 00:32:38;;;;;;;15.80;8.50;;;;;;;9.36;100.00;99175.47;1740348;82;21170;-70
2023/04/02 00:35:25;;;;;;;14.07;8.13;;;;;;;9.36;100.00;99171.38;1704732;83;21520;-68
2023/04/02 00:37:57;;;;;;;12.93;8.20;;;;;;;9.36;100.00;99171.91;1678049;85;21096;-66
2023/04/02 00:40:28;;;;;;;13.70;8.40;;;;;;;9.36;100.00;99170.00;1740456;82;21077;-71
2023/04/02 00:42:58;;;;;;;14.87;8.98;;;;;;;9.37;100.00;99172.20;1704821;83;21033;-68
2023/04/02 00:45:30;;;;;;;15.85;9.23;;;;;;;9.37;100.00;99172.20;1685355;85;21104;-69
2023/04/02 00:48:00;;;;;;;16.55;8.73;;;;;;;9.37;100.00;99180.41;1686065;84;21045;-67
2023/04/02 00:50:35;;;;;;;14.40;8.60;;;;;;;9.37;100.00;99174.41;1685817;84;21061;-67
2023/04/02 00:53:13;;;;;;;15.35;8.95;;;;;;;9.37;100.00;99171.68;1660928;85;21084;-69
2023/04/02 00:55:43;;;;;;;16.60;9.35;;;;;;;9.37;100.00;99177.67;1685900;85;21488;-70
2023/04/02 00:58:28;;;;;;;14.65;8.20;;;;;;;9.36;100.00;99177.37;1686020;85;21536;-69
2023/04/02 01:00:58;;;;;;;14.13;8.33;;;;;;;9.35;100.00;99175.69;1685838;84;21028;-69
2023/04/02 01:03:34;;;;;;;15.65;8.85;;;;;;;9.35;100.00;99180.63;1685766;85;22069;-67
2023/04/02 01:06:09;;;;;;;12.58;8.50;;;;;;;9.35;100.00;99184.73;1685864;84;21057;-68
2023/04/02 01:09:04;;;;;;;13.70;8.85;;;;;;;9.34;100.00;99187.16;1685833;84;21108;-67
2023/04/02 01:12:07;;;;;;;13.83;9.43;;;;;;;9.35;100.00;99180.63;1686047;84;21136;-69
2023/04/02 01:15:09;;;;;;;15.40;9.20;;;;;;;9.33;100.00;99175.91;1685520;85;21041;-69
2023/04/02 01:18:25;;;;;;;18.52;9.30;;;;;;;9.32;100.00;99179.70;1685893;85;21092;-68
2023/04/02 01:21:12;;;;;;;15.20;9.05;;;;;;;9.33;100.00;99178.64;1685923;85;21535;-68
2023/04/02 01:24:06;;;;;;;12.75;7.37;;;;;;;9.31;100.00;99178.55;1686304;85;21084;-69
2023/04/02 01:26:56;;;;;;;14.00;8.93;;;;;;;9.30;100.00;99176.88;1686083;85;21049;-68
2023/04/02 01:29:30;;;;;;;18.40;10.50;;;;;;;9.29;100.00;99177.41;1685837;85;21068;-66
2023/04/02 01:32:07;;;;;;;16.90;10.55;;;;;;;9.28;100.00;99178.99;1703146;84;21444;-68
2023/04/02 01:34:36;;;;;;;16.80;10.98;;;;;;;9.26;100.00;99181.95;1676881;84;21538;-68
2023/04/02 01:37:31;;;;;;;17.20;11.57;;;;;;;9.24;100.00;99182.70;1703210;84;21112;-67
2023/04/02 01:40:16;;;;;;;17.15;10.30;;;;;;;9.26;100.00;99179.74;1686452;83;21091;-68
2023/04/02 01:43:02;;;;;;;19.57;9.53;;;;;;;9.26;100.00;99184.67;1702933;83;21067;-66
2023/04/02 01:45:33;;;;;;;18.23;9.65;;;;;;;9.27;100.00;99182.25;1704445;83;21053;-68
2023/04/02 01:48:15;;;;;;;13.95;8.55;;;;;;;9.27;100.00;99188.25;1704870;83;21461;-68
2023/04/02 01:50:47;;;;;;;15.75;8.35;;;;;;;9.28;100.00;99190.77;1704791;84;21009;-68
2023/04/02 01:53:16;;;;;;;14.18;8.70;;;;;;;9.27;100.00;99190.45;1662687;84;21093;-68
2023/04/02 01:55:55;;;;;;;15.95;9.20;;;;;;;9.26;100.00;99194.77;1704838;84;21473;-69
2023/04/02 01:58:28;;;;;;;16.65;8.95;;;;;;;9.24;100.00;99190.05;1704785;84;21025;-69
2023/04/02 02:01:09;;;;;;;17.17;9.15;;;;;;;9.23;100.00;99189.75;1658534;84;21030;-67
2023/04/02 02:03:42;;;;;;;15.88;8.80;;;;;;;9.22;100.00;99193.01;1704907;83;21069;-68
2023/04/02 02:06:14;;;;;;;15.53;9.30;;;;;;;9.21;100.00;99184.50;1704864;83;21029;-70
2023/04/02 02:09:03;;;;;;;15.08;8.33;;;;;;;9.20;100.00;99186.39;1685399;84;20994;-69
2023/04/02 02:11:35;;;;;;;18.32;11.65;;;;;;;9.18;100.00;99182.20;1704860;84;21085;-72
2023/04/02 02:14:16;;;;;;;17.27;9.10;;;;;;;9.18;100.00;99180.84;1740728;81;21030;-68
2023/04/02 02:16:47;;;;;;;15.18;8.95;;;;;;;9.19;100.00;99186.09;1738220;82;21010;-68
2023/04/02 02:19:40;;;;;;;14.38;8.83;;;;;;;9.20;100.00;99186.92;1704969;84;20998;-69
2023/04/02 02:22:30;;;;;;;14.43;8.50;;;;;;;9.18;100.00;99188.51;1678405;85;21051;-66
2023/04/02 02:25:01;;;;;;;15.50;8.53;;;;;;;9.17;100.00;99190.93;1722567;82;21090;-68
2023/04/02 02:27:51;;;;;;;14.83;8.63;;;;;;;9.17;100.00;99192.30;1707422;83;21033;-68
2023/04/02 02:30:38;;;;;;;15.83;8.85;;;;;;;9.18;100.00;99186.30;1680422;85;21063;-68
2023/04/02 02:33:20;;;;;;;14.95;8.40;;;;;;;9.16;100.00;99183.78;1741650;82;21013;-68
2023/04/02 02:36:14;;;;;;;16.90;9.20;;;;;;;9.18;100.00;99182.20;1740686;82;21456;-69
2023/04/02 02:39:09;;;;;;;17.05;9.35;;;;;;;9.17;100.00;99182.73;1740179;82;21038;-69
2023/04/02 02:41:55;;;;;;;15.50;8.00;;;;;;;9.17;100.00;99185.47;1705247;84;21076;-69
2023/04/02 02:44:34;;;;;;;14.58;9.55;;;;;;;9.18;100.00;99182.20;1676405;85;21133;-68
2023/04/02 02:47:34;;;;;;;15.68;9.65;;;;;;;9.16;100.00;99189.25;1671817;85;21057;-70
2023/04/02 02:50:07;;;;;;;17.98;11.08;;;;;;;9.15;100.00;99194.41;1671908;86;21030;-68
2023/04/02 02:52:38;;;;;;;21.33;11.18;;;;;;;9.15;100.00;99190.31;1647468;86;21045;-67
2023/04/02 02:55:17;;;;;;;21.62;11.53;;;;;;;9.16;100.00;99191.98;1711409;83;21028;-67
2023/04/02 02:57:59;;;;;;;16.97;10.85;;;;;;;9.15;100.00;99190.84;1741151;81;21793;-64
2023/04/02 03:00:30;;;;;;;18.67;11.57;;;;;;;9.15;100.00;99193.57;1740732;82;21081;-67
2023/04/02 03:03:02;;;;;;;19.10;11.40;;;;;;;9.14;100.00;99197.36;1740861;82;21059;-68
2023/04/02 03:05:33;;;;;;;19.25;12.00;;;;;;;9.14;100.00;99198.72;1713809;82;21143;-69
2023/04/02 03:08:05;;;;;;;21.10;12.58;;;;;;;9.12;100.00;99196.21;1740362;82;21022;-68
2023/04/02 03:10:58;;;;;;;21.35;11.83;;;;;;;9.14;100.00;99205.03;1740730;81;21015;-68
2023/04/02 03:13:34;;;;;;;20.95;12.00;;;;;;;9.14;100.00;99206.92;1656677;86;21035;-69
2023/04/02 03:16:15;;;;;;;18.98;10.40;;;;;;;9.14;100.00;99207.77;1723281;82;21075;-68
2023/04/02 03:19:07;;;;;;;17.00;10.65;;;;;;;9.15;100.00;99205.87;1741004;82;21111;-69
2023/04/02 03:21:47;;;;;;;19.50;10.20;;;;;;;9.12;100.00;99209.88;1740823;82;21038;-70
2023/04/02 03:24:24;;;;;;;19.12;9.95;;;;;;;9.13;100.00;99215.65;1740890;82;21074;-69
2023/04/02 03:26:57;;;;;;;16.73;10.28;;;;;;;9.16;100.00;99217.11;1738949;82;21032;-71
2023/04/02 03:29:31;;;;;;;17.10;10.20;;;;;;;9.17;100.00;99212.79;1740812;82;21075;-69
2023/04/02 03:32:25;;;;;;;15.68;9.73;;;;;;;9.15;100.00;99205.34;1740556;82;21051;-68
2023/04/02 03:35:02;;;;;;;17.30;10.10;;;;;;;9.12;100.00;99215.34;1741061;82;21039;-69
2023/04/02 03:38:01;;;;;;;17.87;10.38;;;;;;;9.13;100.00;99214.81;1740975;82;21015;-65
2023/04/02 03:40:34;;;;;;;18.98;10.15;;;;;;;9.13;100.00;99219.75;1740925;82;21035;-68
2023/04/02 03:43:12;;;;;;;16.85;10.03;;;;;;;9.15;100.00;99220.37;1740968;81;21067;-68
2023/04/02 03:45:44;;;;;;;13.20;8.90;;;;;;;9.17;100.00;99218.78;1748209;82;21558;-65
2023/04/02 03:48:28;;;;;;;15.40;9.33;;;;;;;9.18;100.00;99219.94;1753497;82;21037;-67
2023/04/02 03:51:08;;;;;;;18.07;9.68;;;;;;;9.18;100.00;99223.20;1753485;81;21021;-68
2023/04/02 03:53:37;;;;;;;15.75;10.13;;;;;;;9.18;100.00;99231.39;1753832;81;21069;-70
2023/04/02 03:56:06;;;;;;;17.57;9.60;;;;;;;9.16;100.00;99230.77;1717885;83;21069;-71
2023/04/02 03:58:45;;;;;;;16.52;9.90;;;;;;;9.17;100.00;99230.55;1718392;83;21058;-68
2023/04/02 04:01:26;;;;;;;18.27;10.45;;;;;;;9.16;100.00;99228.88;1718202;83;21038;-69
2023/04/02 04:04:11;;;;;;;18.17;9.65;;;;;;;9.16;100.00;99233.50;1660736;86;21104;-67
2023/04/02 04:06:44;;;;;;;18.20;9.98;;;;;;;9.14;100.00;99236.45;1660954;85;21103;-69
2023/04/02 04:09:34;;;;;;;16.10;9.68;;;;;;;9.15;100.00;99234.03;1660910;86;21055;-69
2023/04/02 04:12:24;;;;;;;17.27;10.08;;;;;;;9.15;100.00;99240.86;1660877;85;21072;-67
2023/04/02 04:15:22;;;;;;;14.73;9.25;;;;;;;9.17;100.00;99245.58;1631111;88;21101;-68
2023/04/02 04:18:12;;;;;;;19.90;11.15;;;;;;;9.18;100.00;99243.69;1631342;87;21510;-70
2023/04/02 04:20:56;;;;;;;18.80;10.25;;;;;;;9.17;100.00;99233.81;1631286;88;21101;-69
2023/04/02 04:23:37;;;;;;;20.40;10.78;;;;;;;9.16;100.00;99245.27;1685649;85;21058;-70
2023/04/02 04:26:25;;;;;;;21.30;10.53;;;;;;;9.15;100.00;99245.48;1686006;85;21085;-69
2023/04/02 04:29:20;;;;;;;18.30;10.80;;;;;;;9.15;100.00;99245.48;1685713;85;21469;-68
2023/04/02 04:31:53;;;;;;;20.52;10.53;;;;;;;9.15;100.00;99252.32;1685981;85;21074;-68
2023/04/02 04:34:30;;;;;;;17.65;10.30;;;;;;;9.15;100.00;99257.26;1717798;83;21001;-70
2023/04/02 04:37:01;;;;;;;;;;;;;;;9.14;100.00;99255.58;1719785;83;21031;-68
2023/04/02 04:39:41;;;;;;;19.62;10.85;;;;;;;9.15;100.00;99258.62;1687825;85;20158;-68
2023/04/02 04:42:19;;;;;;;24.12;10.55;;;;;;;9.14;100.00;99259.68;1690647;85;21050;-69
2023/04/02 04:44:56;;;;;;;18.57;10.93;;;;;;;9.15;100.00;99268.19;1690153;84;21499;-69
2023/04/02 04:47:38;;;;;;;20.30;11.00;;;;;;;9.13;100.00;99260.73;1685858;85;21045;-66
2023/04/02 04:50:17;;;;;;;16.27;10.00;;;;;;;9.11;100.00;99266.95;1685795;85;21366;-69
2023/04/02 04:52:48;;;;;;;20.68;9.98;;;;;;;9.13;100.00;99263.99;1685878;85;21033;-67
2023/04/02 04:55:41;;;;;;;16.73;10.48;;;;;;;9.12;100.00;99266.41;1660389;85;21496;-67
2023/04/02 04:58:34;;;;;;;18.60;11.03;;;;;;;9.12;100.00;99261.79;1685789;85;21002;-70
2023/04/02 05:01:18;;;;;;;21.12;10.50;;;;;;;9.13;100.00;99266.20;1685945;85;21064;-68
2023/04/02 05:04:11;;;;;;;16.60;9.85;;;;;;;9.16;100.00;99265.77;1686084;84;21053;-68
2023/04/02 05:06:55;;;;;;;20.90;10.90;;;;;;;9.18;100.00;99269.13;1685624;84;21526;-66
2023/04/02 05:09:41;;;;;;;18.95;10.28;;;;;;;9.20;100.00;99275.20;1660699;85;21124;-69
2023/04/02 05:12:26;;;;;;;18.57;10.78;;;;;;;9.20;100.00;99272.48;1668812;86;21049;-67
2023/04/02 05:15:06;;;;;;;19.02;11.28;;;;;;;9.19;100.00;99275.42;1715353;83;21009;-69
2023/04/02 05:17:58;;;;;;;18.12;11.00;;;;;;;9.20;100.00;99270.27;1715612;83;21083;-69
2023/04/02 05:20:41;;;;;;;20.10;11.85;;;;;;;9.20;100.00;99270.27;1715344;83;21088;-67
2023/04/02 05:23:24;;;;;;;19.12;11.22;;;;;;;9.23;100.00;99270.37;1678896;83;21056;-67
2023/04/02 05:26:17;;;;;;;16.93;11.35;;;;;;;9.25;100.00;99276.45;1715404;83;21040;-69
2023/04/02 05:28:58;;;;;;;20.72;12.05;;;;;;;9.28;100.00;99277.39;1701395;83;21072;-69
2023/04/02 05:31:59;;;;;;;18.62;11.73;;;;;;;9.27;100.00;99278.44;1746226;81;21047;-69
2023/04/02 05:34:35;;;;;;;18.30;10.75;;;;;;;9.29;100.00;99283.16;1748535;82;21015;-64
2023/04/02 05:37:08;;;;;;;18.52;10.90;;;;;;;9.29;100.00;99280.43;1748503;82;21427;-66
2023/04/02 05:39:37;;;;;;;17.90;10.32;;;;;;;9.27;100.00;99279.81;1748321;81;21429;-69
2023/04/02 05:42:09;;;;;;;15.32;10.48;;;;;;;9.28;100.00;99276.02;1748632;81;21510;-66
2023/04/02 05:44:46;;;;;;;14.65;9.35;;;;;;;9.28;100.00;99285.59;1746746;81;21023;-70
2023/04/02 05:47:23;;;;;;;16.25;10.15;;;;;;;9.27;100.00;99285.27;1747476;82;21439;-68
2023/04/02 05:50:10;;;;;;;15.65;9.88;;;;;;;9.26;100.00;99283.59;1748666;81;21094;-67
2023/04/02 05:52:47;;;;;;;14.63;9.58;;;;;;;9.29;100.00;99282.64;1748335;81;21011;-70
2023/04/02 05:55:22;;;;;;;13.85;9.85;;;;;;;9.30;100.00;99288.95;1748946;82;21496;-71
2023/04/02 05:58:01;;;;;;;13.88;9.15;;;;;;;9.29;100.00;99290.00;1749263;82;21419;-71
2023/04/02 06:00:41;;;;;;;13.15;9.08;;;;;;;9.25;100.00;99289.59;1744760;82;21031;-72
2023/04/02 06:03:53;;;;;;;13.70;8.85;;;;;;;9.26;100.00;99289.06;1686748;85;21100;-73
2023/04/02 06:06:44;;;;;;;14.90;8.98;;;;;;;9.26;100.00;99300.00;1689391;85;21521;-71
2023/04/02 06:09:26;;;;;;;13.55;9.00;;;;;;;9.25;100.00;99299.69;1689725;85;21043;-71
2023/04/02 06:12:25;;;;;;;13.65;8.13;;;;;;;9.26;100.00;99302.73;1689661;85;21119;-71
2023/04/02 06:14:56;;;;;;;11.85;8.40;;;;;;;9.25;100.00;99303.78;1687842;85;21076;-73
2023/04/02 06:17:26;;;;;;;14.20;8.38;;;;;;;9.26;100.00;99300.84;1686926;84;21068;-72
2023/04/02 06:19:57;;;;;;;13.25;7.80;;;;;;;9.25;100.00;99302.42;1686514;85;21143;-72
2023/04/02 06:22:36;;;;;;;12.37;8.30;;;;;;;9.26;100.00;99306.30;1744575;82;21066;-73
2023/04/02 06:25:16;;;;;;;11.15;8.25;;;;;;;9.29;100.00;99308.60;1723105;82;21046;-71
2023/04/02 06:27:46;;;;;;;12.58;7.55;;;;;;;9.30;100.00;99308.91;1748702;82;21086;-72
2023/04/02 06:30:20;;;;;;;11.03;7.53;;;;;;;9.30;100.00;99312.17;1722031;81;21019;-70
2023/04/02 06:32:57;;;;;;;11.75;7.72;;;;;;;9.31;100.00;99315.22;1748960;82;21015;-72
2023/04/02 06:35:27;;;;;;;12.70;7.65;;;;;;;9.28;100.00;99314.28;1748530;82;21014;-70
2023/04/02 06:38:03;;;;;;;11.57;7.00;;;;;;;9.28;100.00;99320.59;1748505;81;21042;-70
2023/04/02 06:40:45;;;;;;;12.70;8.30;;;;;;;9.29;100.00;99313.23;1748422;81;21022;-71
2023/04/02 06:43:38;;;;;;;;;;;;;;;9.29;100.00;99323.63;1750725;82;21055;-74
2023/04/02 06:46:47;;;;;;;13.00;8.00;;;;;;;9.31;100.00;99323.42;1744750;81;20523;-73
2023/04/02 06:49:48;;;;;;;9.68;7.47;;;;;;;9.30;100.00;99324.47;1685736;83;21105;-70
2023/04/02 06:52:46;;;;;;;12.15;8.05;;;;;;;9.30;100.00;99326.69;1677514;85;21032;-72
2023/04/02 06:55:36;;;;;;;13.43;8.90;;;;;;;9.28;100.00;99329.32;1740267;82;20990;-70
2023/04/02 06:58:05;;;;;;;12.05;8.08;;;;;;;9.27;100.00;99334.47;1732312;81;21049;-71
2023/04/02 07:00:42;;;;;;;13.60;9.63;;;;;;;9.31;100.00;99331.63;1704986;84;21017;-71
2023/04/02 07:03:26;;;;;;;13.83;9.00;;;;;;;9.32;100.00;99337.40;1677765;85;21023;-72
2023/04/02 07:05:59;;;;;;;15.45;9.55;;;;;;;9.31;100.00;99328.36;1740695;81;21720;-72
2023/04/02 07:08:29;;;;;;;14.20;9.40;;;;;;;9.33;100.00;99337.70;1704751;84;21029;-68
2023/04/02 07:10:58;;;;;;;13.53;9.28;;;;;;;9.32;100.00;99342.34;1677632;85;21060;-70
2023/04/02 07:13:28;;;;;;;15.88;9.85;;;;;;;9.29;100.00;99339.20;1740271;81;21018;-71
2023/04/02 07:15:58;;;;;;;14.28;9.40;;;;;;;9.27;100.00;99338.57;1740222;82;21011;-71
2023/04/02 07:18:31;;;;;;;13.83;9.75;;;;;;;9.30;100.00;99342.23;1740256;82;21069;-71
2023/04/02 07:21:03;;;;;;;15.10;9.30;;;;;;;9.31;100.00;99345.29;1704818;83;21576;-71
2023/04/02 07:23:33;;;;;;;15.23;9.65;;;;;;;9.36;100.00;99344.11;1658455;85;21103;-72
2023/04/02 07:26:03;;;;;;;13.90;9.60;;;;;;;9.38;100.00;99353.78;1740491;81;21011;-69
2023/04/02 07:28:34;;;;;;;13.93;9.25;;;;;;;9.41;100.00;99350.61;1704942;84;21037;-71
2023/04/02 07:31:03;;;;;;;12.78;8.73;;;;;;;9.44;100.00;99354.28;1678014;85;21011;-71
2023/04/02 07:33:33;;;;;;;15.90;10.60;;;;;;;9.46;100.00;99351.33;1740854;82;21065;-72
2023/04/02 07:36:02;;;;;;;16.30;9.60;;;;;;;9.49;100.00;99357.20;1740582;81;21085;-70
2023/04/02 07:38:31;;;;;;;13.30;9.50;;;;;;;9.54;100.00;99357.92;1704932;84;21521;-73
2023/04/02 07:41:05;;;;;;;16.37;11.33;;;;;;;9.54;100.00;99353.30;1677787;85;21673;-73
2023/04/02 07:43:36;;;;;;;15.80;10.30;;;;;;;9.56;100.00;99357.17;1740434;82;21003;-72
2023/04/02 07:46:05;;;;;;;13.68;9.73;;;;;;;9.60;100.00;99352.11;1740546;81;22052;-71
2023/04/02 07:48:34;;;;;;;15.40;10.38;;;;;;;9.62;100.00;99354.94;1740853;82;21027;-74
2023/04/02 07:51:07;;;;;;;16.50;10.25;;;;;;;9.64;100.00;99358.30;1740960;82;21428;-73
2023/04/02 07:54:00;;;;;;;13.60;9.18;;;;;;;9.66;100.00;99357.55;1740438;82;21015;-71
2023/04/02 07:56:28;;;;;;;14.10;9.18;;;;;;;9.69;100.00;99365.33;1709902;83;21048;-66
2023/04/02 07:58:58;;;;;;;13.48;9.28;;;;;;;9.70;100.00;99364.80;1710025;84;21084;-74
2023/04/02 08:01:33;;;;;;;12.18;8.88;;;;;;;9.65;100.00;99364.61;1709854;83;21041;-74
2023/04/02 08:04:02;;;;;;;12.43;9.25;;;;;;;9.61;100.00;99362.84;1709764;84;21096;-74
2023/04/02 08:06:34;;;;;;;14.28;9.85;;;;;;;9.58;100.00;99372.00;1710321;83;21461;-75
2023/04/02 08:09:03;;;;;;;17.70;9.80;;;;;;;9.57;100.00;99368.43;1709955;83;21136;-75
2023/04/02 08:11:34;;;;;;;12.70;9.30;;;;;;;9.58;100.00;99367.38;1709855;84;21077;-76
2023/04/02 08:14:05;;;;;;;15.70;9.18;;;;;;;9.61;100.00;99364.73;1710104;84;21080;-73
2023/04/02 08:16:50;;;;;;;13.55;9.15;;;;;;;9.61;100.00;99367.47;1710131;84;21068;-74
2023/04/02 08:19:21;;;;;;;13.10;9.25;;;;;;;9.63;100.00;99373.03;1700334;84;21452;-72
2023/04/02 08:21:51;;;;;;;17.98;11.12;;;;;;;9.63;100.00;99364.83;1692077;84;21071;-71
2023/04/02 08:24:20;;;;;;;16.45;10.10;;;;;;;9.66;100.00;99367.13;1691770;84;21277;-71
2023/04/02 08:26:50;;;;;;;13.40;9.18;;;;;;;9.70;100.00;99366.16;1691859;83;21119;-72
2023/04/02 08:29:19;;;;;;;12.37;8.45;;;;;;;9.73;100.00;99372.56;1709462;84;21455;-74
2023/04/02 08:31:48;;;;;;;14.55;8.85;;;;;;;9.73;100.00;99368.46;1712382;84;21061;-73
2023/04/02 08:34:17;;;;;;;11.03;8.08;;;;;;;9.74;100.00;99372.34;1704462;84;21024;-72
2023/04/02 08:36:46;;;;;;;13.18;8.75;;;;;;;9.73;100.00;99366.56;1701868;84;21065;-72
2023/04/02 08:39:15;;;;;;;13.15;9.00;;;;;;;9.75;100.00;99374.06;1707944;83;21108;-74
2023/04/02 08:41:59;;;;;;;11.95;8.68;;;;;;;9.79;100.00;99372.56;1708567;84;21061;-71
2023/04/02 08:44:53;;;;;;;11.73;8.50;;;;;;;9.83;100.00;99377.07;1710126;84;21055;-70
2023/04/02 08:47:24;;;;;;;14.18;8.40;;;;;;;9.82;100.00;99380.34;1714390;83;21086;-73
2023/04/02 08:50:00;;;;;;;11.93;8.90;;;;;;;9.80;100.00;99382.98;1714678;84;21514;-74
2023/04/02 08:52:38;;;;;;;15.40;9.25;;;;;;;9.80;100.00;99382.45;1714705;82;21086;-72
2023/04/02 08:55:42;;;;;;;12.25;9.10;;;;;;;9.82;100.00;99384.44;1717978;81;21066;-73
2023/04/02 08:58:38;;;;;;;13.43;9.78;;;;;;;9.82;100.00;99395.91;1689341;84;21532;-70
2023/04/02 09:01:15;;;;;;;13.15;9.05;;;;;;;9.81;100.00;99393.70;1674222;85;21110;-72
2023/04/02 09:03:45;;;;;;;;;;;;;;;9.80;100.00;99387.92;1640704;86;21121;-71
2023/04/02 09:06:18;;;;;;;17.48;9.48;;;;;;;9.81;100.00;99390.13;1666152;86;20165;-70
2023/04/02 09:08:48;;;;;;;16.37;10.40;;;;;;;9.82;100.00;99389.91;1666346;86;21125;-73
2023/04/02 09:11:32;;;;;;;14.98;9.88;;;;;;;9.84;100.00;99393.27;1666509;86;21018;-73
2023/04/02 09:14:05;;;;;;;16.57;11.28;;;;;;;9.85;100.00;99393.58;1657594;86;21102;-74
2023/04/02 09:16:53;;;;;;;14.63;9.40;;;;;;;9.87;100.00;99390.63;1666396;86;21157;-71
2023/04/02 09:19:25;;;;;;;14.93;8.95;;;;;;;9.88;100.00;99396.41;1666243;86;21079;-72
2023/04/02 09:22:08;;;;;;;13.13;9.40;;;;;;;9.92;100.00;99398.18;1689666;85;21475;-72
2023/04/02 09:24:40;;;;;;;14.18;9.30;;;;;;;9.95;100.00;99400.48;1665089;85;21533;-74
2023/04/02 09:27:21;;;;;;;12.93;8.50;;;;;;;9.95;100.00;99396.38;1689816;84;21091;-70
2023/04/02 09:29:59;;;;;;;15.35;9.40;;;;;;;9.94;100.00;99400.17;1638291;87;21056;-72
2023/04/02 09:32:40;;;;;;;11.43;8.50;;;;;;;9.96;100.00;99399.42;1668913;85;21091;-71
2023/04/02 09:35:17;;;;;;;14.35;8.80;;;;;;;9.94;100.00;99404.27;1681217;85;21044;-71
2023/04/02 09:38:18;;;;;;;12.78;8.78;;;;;;;9.92;100.00;99399.55;1699871;84;21102;-71
2023/04/02 09:40:55;;;;;;;11.80;8.20;;;;;;;9.92;100.00;99409.97;1704211;84;21071;-70
2023/04/02 09:43:36;;;;;;;11.20;8.05;;;;;;;9.91;100.00;99412.39;1679116;84;21022;-71
2023/04/02 09:46:24;;;;;;;12.07;8.43;;;;;;;9.91;100.00;99412.92;1704285;84;21054;-71
2023/04/02 09:48:59;;;;;;;12.15;8.35;;;;;;;9.87;100.00;99414.41;1701727;84;21419;-71
2023/04/02 09:51:33;;;;;;;13.88;9.60;;;;;;;9.85;100.00;99412.73;1701503;83;21038;-72
2023/04/02 09:54:07;;;;;;;11.18;8.45;;;;;;;9.83;100.00;99406.64;1701546;84;21117;-71
2023/04/02 09:56:37;;;;;;;14.40;9.85;;;;;;;9.83;100.00;99417.58;1687303;84;21369;-72
2023/04/02 09:59:20;;;;;;;12.90;8.58;;;;;;;9.79;100.00;99420.44;1686325;85;21455;-71
2023/04/02 10:02:04;;;;;;;14.85;9.53;;;;;;;9.81;100.00;99423.80;1686457;85;21134;-70
2023/04/02 10:04:43;;;;;;;13.72;9.60;;;;;;;9.77;100.00;99423.92;1686235;85;21103;-70
2023/04/02 10:07:42;;;;;;;14.95;10.20;;;;;;;9.78;100.00;99422.86;1686572;85;21519;-71
2023/04/02 10:10:22;;;;;;;14.35;10.30;;;;;;;9.76;100.00;99420.88;1686329;85;21083;-71
2023/04/02 10:13:00;;;;;;;19.02;12.13;;;;;;;9.73;100.00;99428.64;1686251;85;21135;-71
2023/04/02 10:15:45;;;;;;;17.95;11.88;;;;;;;9.69;100.00;99421.39;1621546;87;21223;-72
2023/04/02 10:18:31;;;;;;;15.80;10.63;;;;;;;9.67;100.00;99419.93;1620655;88;21098;-71
2023/04/02 10:21:00;;;;;;;19.48;12.10;;;;;;;9.67;100.00;99419.93;1635457;87;21054;-72
2023/04/02 10:23:30;;;;;;;18.60;11.40;;;;;;;9.65;100.00;99420.14;1635467;87;21122;-74
2023/04/02 10:26:16;;;;;;;17.67;11.97;;;;;;;9.64;100.00;99441.71;1634584;87;21139;-71
2023/04/02 10:29:20;;;;;;;20.40;11.65;;;;;;;9.64;100.00;99434.88;1583843;90;21058;-74
2023/04/02 10:32:13;;;;;;;19.27;12.88;;;;;;;9.69;100.00;99439.17;1584058;89;21074;-72
2023/04/02 10:35:01;;;;;;;18.75;12.45;;;;;;;9.70;100.00;99440.02;1627909;87;21078;-72
2023/04/02 10:37:56;;;;;;;18.45;12.75;;;;;;;9.67;100.00;99442.65;1631464;88;21118;-70
2023/04/02 10:41:04;;;;;;;20.05;13.62;;;;;;;9.65;100.00;99449.39;1632092;88;21125;-73
2023/04/02 10:44:10;;;;;;;17.92;12.60;;;;;;;9.61;100.00;99448.98;1554834;92;21524;-71
2023/04/02 10:47:03;;;;;;;17.80;12.28;;;;;;;9.62;100.00;99449.30;1573240;89;21095;-71
2023/04/02 10:49:50;;;;;;;18.23;13.05;;;;;;;9.62;100.00;99447.92;1605510;89;21145;-71
2023/04/02 10:52:39;;;;;;;16.77;11.78;;;;;;;9.62;100.00;99451.19;1605696;89;21189;-72
2023/04/02 10:55:25;;;;;;;17.87;12.58;;;;;;;9.62;100.00;99450.66;1607584;89;21142;-74
2023/04/02 10:57:54;;;;;;;16.80;12.05;;;;;;;9.60;100.00;99451.93;1611212;89;21090;-74
2023/04/02 11:00:27;;;;;;;20.20;13.10;;;;;;;9.60;100.00;99457.40;1611381;89;21555;-75
2023/04/02 11:03:10;;;;;;;22.77;13.62;;;;;;;9.61;100.00;99458.55;1694316;84;21491;-74
2023/04/02 11:05:50;;;;;;;19.37;13.18;;;;;;;9.63;100.00;99457.81;1695609;84;21050;-69
2023/04/02 11:08:39;;;;;;;16.82;11.68;;;;;;;9.65;100.00;99454.86;1695650;84;21046;-74
2023/04/02 11:11:18;;;;;;;17.45;12.82;;;;;;;9.65;100.00;99458.44;1695606;84;21070;-75
2023/04/02 11:13:54;;;;;;;18.40;12.70;;;;;;;9.64;100.00;99454.02;1703330;83;21023;-75
2023/04/02 11:16:24;;;;;;;17.75;12.07;;;;;;;9.65;100.00;99452.97;1724475;83;21022;-76
2023/04/02 11:19:18;;;;;;;17.65;11.55;;;;;;;9.67;100.00;99460.42;1724772;83;21009;-75
2023/04/02 11:22:16;;;;;;;13.85;10.20;;;;;;;9.69;100.00;99455.58;1724431;83;21018;-72
2023/04/02 11:24:47;;;;;;;16.65;11.55;;;;;;;9.68;100.00;99452.53;1724700;83;21455;-75
2023/04/02 11:27:28;;;;;;;16.45;11.40;;;;;;;9.69;100.00;99456.95;1724709;82;21528;-74
2023/04/02 11:30:25;;;;;;;16.90;11.30;;;;;;;9.71;100.00;99465.78;1717428;83;21074;-72
2023/04/02 11:32:55;;;;;;;16.07;11.45;;;;;;;9.72;100.00;99462.52;1724722;82;21061;-70
2023/04/02 11:35:36;;;;;;;18.02;11.97;;;;;;;9.73;100.00;99462.30;1656337;82;21464;-74
2023/04/02 11:38:21;;;;;;;19.10;11.18;;;;;;;9.75;100.00;99467.06;1739746;82;21094;-72
2023/04/02 11:40:55;;;;;;;15.03;10.63;;;;;;;9.79;100.00;99458.73;1739513;82;21596;-75
2023/04/02 11:43:40;;;;;;;18.05;11.78;;;;;;;9.84;100.00;99463.56;1739605;82;21961;-73
2023/04/02 11:46:20;;;;;;;19.00;12.23;;;;;;;9.88;100.00;99457.97;1739607;82;21055;-70
2023/04/02 11:48:50;;;;;;;17.75;11.48;;;;;;;9.96;100.00;99458.25;1680204;85;21143;-72
2023/04/02 11:51:34;;;;;;;18.10;12.82;;;;;;;10.04;100.00;99464.84;1680852;85;21102;-72
2023/04/02 11:54:04;;;;;;;18.50;12.90;;;;;;;10.10;100.00;99462.61;1675925;85;21486;-75
2023/04/02 11:56:47;;;;;;;16.70;11.90;;;;;;;10.17;100.00;99462.89;1680186;84;21138;-70
2023/04/02 11:59:33;;;;;;;15.40;10.75;;;;;;;10.22;100.00;99470.48;1618112;88;21614;-70
2023/04/02 12:02:27;;;;;;;12.13;9.20;;;;;;;10.26;100.00;99470.88;1647483;85;21118;-73
2023/04/02 12:05:19;;;;;;;12.65;8.20;;;;;;;10.28;100.00;99470.97;1679664;85;21566;-72
2023/04/02 12:08:04;;;;;;;10.13;8.38;;;;;;;10.29;100.00;99475.39;1718936;83;21528;-73
2023/04/02 12:10:55;;;;;;;10.58;7.83;;;;;;;10.34;100.00;99470.62;1731177;83;21102;-72
2023/04/02 12:13:49;;;;;;;10.65;8.33;;;;;;;10.33;100.00;99478.00;1730268;83;21534;-73
2023/04/02 12:16:19;;;;;;;13.00;8.25;;;;;;;10.30;100.00;99472.12;1721766;82;21018;-72
2023/04/02 12:18:53;;;;;;;10.20;6.47;;;;;;;10.28;100.00;99476.45;1722118;82;21085;-71
2023/04/02 12:21:26;;;;;;;9.88;6.45;;;;;;;10.27;99.72;99478.03;1721313;83;21018;-70